Time;durP1;ratioP1;P1;durP2;ratioP2;P2;SDS_P1;SDS_P2;PMS_P1;PMS_P2;Temp;Humidity;BMP_temperature;BMP_pressure;BME280_temperature;BME280_humidity;BME280_pressure;Samples;Min_cycle;Max_cycle;Signal;HPM_P1;HPM_P2
2022/11/17 00:00:41;;;;;;;8.10;7.40;;;7.50;99.90;;;;;;5085392;28;20456;-79
2022/11/17 00:03:13;;;;;;;8.17;7.37;;;7.50;99.90;;;;;;5086721;28;20484;-80
2022/11/17 00:05:41;;;;;;;9.90;9.00;;;7.50;99.90;;;;;;5085993;28;20428;-80
2022/11/17 00:08:09;;;;;;;9.20;8.40;;;7.50;99.90;;;;;;5085716;28;20461;-79
2022/11/17 00:10:37;;;;;;;8.77;7.97;;;7.50;99.90;;;;;;5087053;28;21018;-80
2022/11/17 00:15:51;;;;;;;9.57;8.67;;;7.50;99.90;;;;;;5034472;28;20458;-79
2022/11/17 00:21:22;;;;;;;9.20;8.40;;;7.50;99.90;;;;;;5082897;28;20496;-79
2022/11/17 00:23:50;;;;;;;9.30;8.50;;;7.50;99.90;;;;;;5082671;28;20488;-79
2022/11/17 00:26:20;;;;;;;9.07;8.27;;;7.50;99.90;;;;;;5083056;28;20496;-80
2022/11/17 00:28:51;;;;;;;9.90;9.00;;;7.40;99.90;;;;;;5083153;28;20462;-79
2022/11/17 00:34:10;;;;;;;10.00;9.10;;;7.40;99.90;;;;;;5083066;28;20452;-80
2022/11/17 00:36:41;;;;;;;9.97;9.17;;;7.40;99.90;;;;;;5082142;28;20436;-79
2022/11/17 00:39:11;;;;;;;10.40;9.50;;;7.40;99.90;;;;;;5082219;28;20445;-79
2022/11/17 00:41:39;;;;;;;10.07;9.27;;;7.40;99.90;;;;;;5081823;28;20466;-79
2022/11/17 00:44:08;;;;;;;10.13;9.23;;;7.40;99.90;;;;;;5081793;28;20486;-79
2022/11/17 00:46:38;;;;;;;10.00;9.10;;;7.40;99.90;;;;;;5081267;28;20977;-79
2022/11/17 00:49:07;;;;;;;10.07;9.20;;;7.40;99.90;;;;;;5081635;28;20456;-79
2022/11/17 00:51:36;;;;;;;10.13;9.23;;;7.40;99.90;;;;;;5081774;28;20441;-79
2022/11/17 00:54:06;;;;;;;11.00;10.00;;;7.40;99.90;;;;;;5081704;28;20466;-79
2022/11/17 00:56:34;;;;;;;11.00;10.00;;;7.40;99.90;;;;;;5079493;28;20443;-78
2022/11/17 00:59:02;;;;;;;11.80;10.83;;;7.40;99.90;;;;;;5079350;28;20486;-79
2022/11/17 01:01:31;;;;;;;11.20;10.30;;;7.40;99.90;;;;;;5080188;28;21004;-79
2022/11/17 01:04:02;;;;;;;11.30;10.30;;;7.40;99.90;;;;;;5080721;28;20570;-79
2022/11/17 01:06:33;;;;;;;11.60;10.60;;;7.40;99.90;;;;;;5081763;28;20425;-79
2022/11/17 01:09:02;;;;;;;10.97;9.97;;;7.40;99.90;;;;;;5079849;28;20811;-79
2022/11/17 01:11:30;;;;;;;10.63;9.63;;;7.30;99.90;;;;;;5082150;28;20458;-79
2022/11/17 01:14:00;;;;;;;10.60;9.60;;;7.30;99.90;;;;;;5081351;28;20567;-79
2022/11/17 01:16:29;;;;;;;10.87;9.77;;;7.30;99.90;;;;;;5083412;28;20456;-79
2022/11/17 01:19:01;;;;;;;10.97;9.97;;;7.30;99.90;;;;;;5078781;28;20456;-79
2022/11/17 01:21:30;;;;;;;11.50;10.50;;;7.30;99.90;;;;;;5081197;28;20444;-79
2022/11/17 01:24:00;;;;;;;10.07;9.17;;;7.50;99.90;;;;;;5078343;28;20522;-79
2022/11/17 01:26:30;;;;;;;10.27;9.37;;;7.30;99.90;;;;;;5081302;28;20461;-79
2022/11/17 01:28:58;;;;;;;9.57;8.67;;;7.20;99.90;;;;;;5082908;28;20448;-79
2022/11/17 01:31:29;;;;;;;9.87;8.97;;;7.20;99.90;;;;;;5084678;28;20456;-79
2022/11/17 01:33:57;;;;;;;10.00;9.10;;;7.20;99.90;;;;;;5086695;28;20458;-79
2022/11/17 01:36:29;;;;;;;9.10;8.30;;;7.20;99.90;;;;;;5083523;28;20440;-79
2022/11/17 01:38:57;;;;;;;9.00;8.10;;;7.20;99.90;;;;;;5084517;28;20524;-79
2022/11/17 01:41:27;;;;;;;8.60;7.70;;;7.20;99.90;;;;;;5082452;28;20867;-79
2022/11/17 01:43:57;;;;;;;7.33;6.63;;;7.20;99.90;;;;;;5083484;28;20484;-79
2022/11/17 01:46:32;;;;;;;7.93;7.23;;;7.20;99.90;;;;;;5081935;28;20911;-80
2022/11/17 01:49:05;;;;;;;7.10;6.40;;;7.20;99.90;;;;;;5081842;28;20543;-79
2022/11/17 01:51:38;;;;;;;7.33;6.63;;;7.20;99.90;;;;;;5081968;28;20875;-79
2022/11/17 01:54:07;;;;;;;6.90;6.30;;;7.20;99.90;;;;;;5080402;28;20476;-79
2022/11/17 01:56:38;;;;;;;6.73;6.10;;;7.20;99.90;;;;;;5080528;28;20447;-80
2022/11/17 01:59:14;;;;;;;7.17;6.50;;;7.10;99.90;;;;;;5081372;28;20448;-79
2022/11/17 02:01:54;;;;;;;6.90;6.30;;;7.10;99.90;;;;;;5082861;28;20447;-80
2022/11/17 02:04:25;;;;;;;6.57;5.97;;;7.10;99.90;;;;;;5083398;28;20473;-80
2022/11/17 02:07:00;;;;;;;7.83;5.60;;;7.10;99.90;;;;;;5083713;28;20437;-79
2022/11/17 02:09:29;;;;;;;6.60;6.00;;;7.10;99.90;;;;;;5082824;28;20452;-79
2022/11/17 02:11:58;;;;;;;6.30;5.67;;;7.10;99.90;;;;;;5083473;28;20441;-79
2022/11/17 02:14:27;;;;;;;6.23;5.30;;;7.10;99.90;;;;;;5084313;28;20542;-80
2022/11/17 02:16:55;;;;;;;6.40;5.80;;;7.10;99.90;;;;;;5082824;28;20455;-80
2022/11/17 02:19:26;;;;;;;5.70;5.13;;;7.10;99.90;;;;;;5081997;28;20457;-80
2022/11/17 02:22:32;;;;;;;5.73;5.23;;;7.10;99.90;;;;;;5081032;28;20954;-79
2022/11/17 02:25:29;;;;;;;5.43;4.93;;;7.10;99.90;;;;;;5080864;28;20447;-80
2022/11/17 02:28:15;;;;;;;5.73;5.13;;;7.10;99.90;;;;;;5079379;28;20450;-80
2022/11/17 02:30:53;;;;;;;5.50;5.00;;;7.10;99.90;;;;;;5076297;28;20441;-80
2022/11/17 02:33:29;;;;;;;5.37;4.73;;;7.10;99.90;;;;;;5080868;28;20458;-79
2022/11/17 02:36:03;;;;;;;5.40;4.90;;;7.10;99.90;;;;;;5083194;28;20461;-79
2022/11/17 02:38:37;;;;;;;5.40;4.90;;;7.10;99.90;;;;;;5083103;28;20811;-80
2022/11/17 02:41:12;;;;;;;5.17;4.67;;;7.10;99.90;;;;;;5081714;28;20443;-79
2022/11/17 02:44:03;;;;;;;5.47;4.97;;;7.00;99.90;;;;;;5080826;28;20881;-79
2022/11/17 02:46:39;;;;;;;5.37;4.87;;;7.00;99.90;;;;;;5082046;28;20442;-80
2022/11/17 02:49:15;;;;;;;5.10;4.07;;;7.00;99.90;;;;;;5084180;28;20894;-79
2022/11/17 02:51:45;;;;;;;5.33;4.83;;;7.00;99.90;;;;;;5082690;28;20438;-79
2022/11/17 02:54:13;;;;;;;4.73;4.33;;;7.00;99.90;;;;;;5082292;28;20471;-79
2022/11/17 02:56:42;;;;;;;6.07;5.57;;;7.00;99.90;;;;;;5083692;28;20445;-79
2022/11/17 02:59:13;;;;;;;5.30;4.80;;;7.00;99.90;;;;;;5085843;28;20446;-79
2022/11/17 03:02:29;;;;;;;4.40;4.00;;;7.00;99.90;;;;;;5086467;28;20436;-80
2022/11/17 03:05:07;;;;;;;5.60;4.90;;;7.00;99.90;;;;;;5041677;28;20491;-79
2022/11/17 03:07:48;;;;;;;6.70;6.00;;;7.00;99.90;;;;;;5086669;28;20482;-79
2022/11/17 03:10:23;;;;;;;6.27;5.67;;;7.00;99.90;;;;;;5084674;28;20448;-80
2022/11/17 03:12:59;;;;;;;6.50;5.90;;;7.00;99.90;;;;;;5083332;28;20985;-79
2022/11/17 03:15:38;;;;;;;6.73;6.03;;;7.00;99.90;;;;;;5083494;28;20441;-80
2022/11/17 03:18:14;;;;;;;7.07;6.47;;;7.00;99.90;;;;;;5083809;28;20438;-80
2022/11/17 03:23:36;;;;;;;6.97;6.37;;;7.00;99.90;;;;;;5162292;27;20572;-79
2022/11/17 03:26:09;;;;;;;7.00;6.40;;;7.00;99.90;;;;;;5162603;27;20426;-79
2022/11/17 03:28:39;;;;;;;6.17;5.57;;;7.00;99.90;;;;;;5160705;27;20450;-79
2022/11/17 03:31:08;;;;;;;7.30;6.60;;;7.00;99.90;;;;;;5159351;27;20449;-79
2022/11/17 03:33:38;;;;;;;8.27;7.47;;;7.00;99.90;;;;;;5160662;27;20463;-79
2022/11/17 03:36:10;;;;;;;8.10;7.40;;;7.00;99.90;;;;;;5159528;27;20453;-79
2022/11/17 03:38:46;;;;;;;7.67;6.97;;;7.00;99.90;;;;;;5159973;27;20431;-79
2022/11/17 03:41:15;;;;;;;7.10;6.50;;;7.00;99.90;;;;;;5161349;27;20431;-80
2022/11/17 03:43:48;;;;;;;8.30;7.50;;;7.00;99.90;;;;;;5162196;27;20527;-79
2022/11/17 03:46:18;;;;;;;7.80;7.10;;;7.00;99.90;;;;;;5160144;27;20463;-79
2022/11/17 03:48:50;;;;;;;7.80;7.07;;;7.00;99.90;;;;;;5161275;27;20863;-78
2022/11/17 03:51:21;;;;;;;7.93;7.23;;;7.00;99.90;;;;;;5159155;27;20525;-79
2022/11/17 03:53:52;;;;;;;8.20;7.50;;;7.00;99.90;;;;;;5160302;27;20484;-79
2022/11/17 03:56:31;;;;;;;8.40;7.70;;;7.00;99.90;;;;;;5160924;27;20439;-80
2022/11/17 03:59:03;;;;;;;9.00;8.17;;;7.00;99.90;;;;;;5160399;27;20441;-79
2022/11/17 04:01:33;;;;;;;8.33;7.60;;;7.00;99.90;;;;;;5158189;27;20452;-79
2022/11/17 04:04:01;;;;;;;9.00;8.20;;;6.90;99.90;;;;;;5161443;27;20462;-79
2022/11/17 04:06:29;;;;;;;9.43;8.53;;;7.00;99.90;;;;;;5159549;27;20448;-79
2022/11/17 04:08:59;;;;;;;11.50;10.40;;;7.00;99.90;;;;;;5158916;27;20453;-79
2022/11/17 04:16:58;;;;;;;9.53;8.63;;;7.00;99.90;;;;;;5158112;27;20442;-80
2022/11/17 04:19:26;;;;;;;9.70;8.80;;;7.00;99.90;;;;;;5159920;27;20498;-79
2022/11/17 04:21:54;;;;;;;10.50;9.60;;;7.00;99.90;;;;;;5160018;27;20921;-79
2022/11/17 04:24:23;;;;;;;13.13;11.70;;;7.00;99.90;;;;;;5158385;27;20441;-79
2022/11/17 04:29:37;;;;;;;10.17;9.17;;;7.00;99.90;;;;;;5157868;27;20980;-79
2022/11/17 04:32:05;;;;;;;10.37;9.37;;;7.00;99.90;;;;;;5158103;27;20500;-79
2022/11/17 04:34:33;;;;;;;9.33;8.43;;;6.90;99.90;;;;;;5144995;27;20439;-79
2022/11/17 04:37:01;;;;;;;9.90;9.00;;;6.90;99.90;;;;;;5146413;27;20983;-80
2022/11/17 04:39:38;;;;;;;11.33;10.23;;;7.10;99.90;;;;;;5143381;27;20448;-80
2022/11/17 04:42:05;;;;;;;10.70;9.33;;;6.90;99.90;;;;;;5142058;27;20464;-79
2022/11/17 04:44:33;;;;;;;10.23;9.23;;;6.90;99.90;;;;;;5142041;27;20446;-80
2022/11/17 04:47:03;;;;;;;11.00;9.27;;;6.90;99.90;;;;;;5144514;27;20542;-80
2022/11/17 04:49:32;;;;;;;10.43;9.30;;;6.90;99.90;;;;;;5146560;27;20432;-80
2022/11/17 04:52:00;;;;;;;10.50;9.50;;;6.90;99.90;;;;;;5143519;27;20840;-79
2022/11/17 04:54:28;;;;;;;10.77;9.77;;;6.90;99.90;;;;;;5141483;27;20940;-80
2022/11/17 04:56:58;;;;;;;10.40;9.40;;;6.90;99.90;;;;;;5141934;27;20547;-80
2022/11/17 04:59:26;;;;;;;10.37;9.33;;;6.90;99.90;;;;;;5144487;27;20447;-79
2022/11/17 05:01:54;;;;;;;11.70;9.40;;;6.90;99.90;;;;;;5144655;27;20445;-79
2022/11/17 05:07:11;;;;;;;10.47;9.47;;;6.80;99.90;;;;;;5143731;27;20424;-79
2022/11/17 05:09:39;;;;;;;12.20;11.00;;;6.80;99.90;;;;;;5141901;27;20437;-79
2022/11/17 05:14:54;;;;;;;11.47;10.37;;;6.80;99.90;;;;;;5141697;27;20406;-79
2022/11/17 05:17:21;;;;;;;11.90;10.70;;;6.80;99.90;;;;;;5140032;27;20452;-79
2022/11/17 05:19:54;;;;;;;11.30;10.20;;;6.70;99.90;;;;;;5142655;27;20483;-79
2022/11/17 05:25:10;;;;;;;11.30;10.10;;;6.80;99.90;;;;;;5140336;27;20436;-79
2022/11/17 05:27:39;;;;;;;11.10;10.00;;;6.80;99.90;;;;;;5137723;27;20503;-79
2022/11/17 05:30:09;;;;;;;11.70;10.60;;;6.70;99.90;;;;;;5143416;27;20442;-79
2022/11/17 05:32:37;;;;;;;10.73;9.73;;;6.70;99.90;;;;;;5141298;27;20994;-79
2022/11/17 05:35:06;;;;;;;11.10;10.00;;;6.70;99.90;;;;;;5141694;27;20445;-79
2022/11/17 05:37:37;;;;;;;11.73;10.53;;;6.70;99.90;;;;;;5139262;27;20437;-79
2022/11/17 05:40:06;;;;;;;11.70;10.50;;;6.70;99.90;;;;;;5139715;27;20454;-79
2022/11/17 05:42:34;;;;;;;10.80;9.70;;;6.70;99.90;;;;;;5140544;27;20698;-79
2022/11/17 05:45:04;;;;;;;12.67;11.40;;;6.70;99.90;;;;;;5141170;27;20439;-79
2022/11/17 05:47:32;;;;;;;11.40;10.30;;;6.70;99.90;;;;;;5143176;27;20535;-80
2022/11/17 05:50:00;;;;;;;11.10;10.00;;;6.70;99.90;;;;;;5141062;27;20526;-79
2022/11/17 05:52:29;;;;;;;10.43;9.30;;;6.70;99.90;;;;;;5142132;27;20466;-79
2022/11/17 05:54:57;;;;;;;11.30;10.20;;;6.80;99.90;;;;;;5140920;27;20438;-79
2022/11/17 05:57:30;;;;;;;12.17;10.97;;;6.70;99.90;;;;;;5140294;27;20444;-79
2022/11/17 06:00:03;;;;;;;11.80;10.60;;;6.60;99.90;;;;;;5139643;27;20795;-79
2022/11/17 06:02:44;;;;;;;12.33;11.20;;;6.70;99.90;;;;;;5139258;27;20497;-79
2022/11/17 06:05:14;;;;;;;12.20;11.00;;;6.60;99.90;;;;;;5139619;27;20440;-79
2022/11/17 06:07:47;;;;;;;13.23;11.90;;;6.70;99.90;;;;;;5139862;27;20794;-79
2022/11/17 06:10:15;;;;;;;13.80;11.47;;;6.60;99.90;;;;;;5140223;27;20841;-80
2022/11/17 06:12:43;;;;;;;11.33;10.30;;;6.60;99.90;;;;;;5138588;27;20479;-79
2022/11/17 06:15:15;;;;;;;13.07;11.77;;;6.60;99.90;;;;;;5139085;27;20868;-79
2022/11/17 06:17:48;;;;;;;13.63;12.20;;;6.60;99.90;;;;;;5138872;27;20550;-79
2022/11/17 06:20:21;;;;;;;13.23;11.93;;;6.60;99.90;;;;;;5140807;27;20428;-80
2022/11/17 06:22:50;;;;;;;14.67;13.17;;;6.60;99.90;;;;;;5137114;27;20480;-80
2022/11/17 06:25:19;;;;;;;14.17;12.77;;;6.60;99.90;;;;;;5136718;27;20497;-80
2022/11/17 06:27:49;;;;;;;14.30;12.90;;;6.60;99.90;;;;;;5137774;27;20443;-79
2022/11/17 06:30:18;;;;;;;13.90;12.50;;;6.60;99.90;;;;;;5137827;27;20448;-79
2022/11/17 06:32:48;;;;;;;13.93;12.50;;;6.60;99.90;;;;;;5137612;27;21032;-79
2022/11/17 06:35:17;;;;;;;13.40;12.00;;;6.50;99.90;;;;;;5136704;27;20432;-79
2022/11/17 06:37:45;;;;;;;15.70;14.20;;;6.50;99.90;;;;;;5141080;27;20448;-79
2022/11/17 06:40:13;;;;;;;15.53;13.90;;;6.50;99.90;;;;;;5136975;27;20443;-79
2022/11/17 06:45:27;;;;;;;16.10;14.50;;;6.50;99.90;;;;;;5140298;27;20435;-80
2022/11/17 06:47:56;;;;;;;18.27;16.50;;;6.50;99.90;;;;;;5140649;27;20434;-80
2022/11/17 06:50:25;;;;;;;18.27;16.43;;;6.50;99.90;;;;;;5140865;27;20522;-80
2022/11/17 06:52:57;;;;;;;16.07;14.50;;;6.50;99.90;;;;;;5140507;27;20539;-79
2022/11/17 06:55:25;;;;;;;16.30;14.70;;;6.50;99.90;;;;;;5143678;27;20411;-79
2022/11/17 06:57:59;;;;;;;17.50;15.70;;;6.50;99.90;;;;;;5138951;27;20453;-79
2022/11/17 07:00:27;;;;;;;18.03;16.23;;;6.50;99.90;;;;;;5140969;27;20442;-80
2022/11/17 07:03:03;;;;;;;18.60;16.00;;;6.40;99.90;;;;;;5140880;27;20523;-79
2022/11/17 07:05:32;;;;;;;17.90;16.10;;;6.40;99.90;;;;;;5143161;27;20428;-79
2022/11/17 07:08:02;;;;;;;18.00;15.83;;;6.40;99.90;;;;;;5141587;27;20453;-79
2022/11/17 07:10:31;;;;;;;17.40;15.30;;;6.40;99.90;;;;;;5140922;27;20793;-79
2022/11/17 07:12:59;;;;;;;18.60;16.70;;;6.30;99.90;;;;;;5139901;27;20828;-79
2022/11/17 07:15:27;;;;;;;17.20;15.50;;;6.30;99.90;;;;;;5142450;27;20439;-79
2022/11/17 07:17:55;;;;;;;18.30;16.33;;;6.30;99.90;;;;;;5140002;27;20430;-78
2022/11/17 07:20:25;;;;;;;18.70;16.53;;;6.30;99.90;;;;;;5139192;28;20518;-78
2022/11/17 07:22:58;;;;;;;17.80;15.90;;;6.30;99.90;;;;;;5139061;27;20470;-78
2022/11/17 07:25:27;;;;;;;19.83;17.83;;;6.30;99.90;;;;;;5135036;28;20868;-78
2022/11/17 07:27:59;;;;;;;19.93;16.50;;;6.20;99.90;;;;;;5136398;27;20939;-78
2022/11/17 07:30:27;;;;;;;20.87;17.73;;;6.20;99.90;;;;;;5135765;28;20481;-77
2022/11/17 07:32:55;;;;;;;19.50;16.93;;;6.20;99.90;;;;;;5136953;28;20453;-78
2022/11/17 07:35:24;;;;;;;19.87;17.87;;;6.20;99.90;;;;;;5134428;28;20501;-78
2022/11/17 07:37:57;;;;;;;18.50;16.73;;;6.10;99.90;;;;;;5134153;28;20540;-77
2022/11/17 07:40:25;;;;;;;19.43;16.90;;;6.20;99.90;;;;;;5136308;28;20924;-78
2022/11/17 07:42:53;;;;;;;20.13;17.00;;;6.10;99.90;;;;;;5133607;28;20924;-77
2022/11/17 07:45:22;;;;;;;18.80;16.90;;;6.10;99.90;;;;;;5133317;28;20462;-77
2022/11/17 07:47:56;;;;;;;18.50;16.60;;;6.10;99.90;;;;;;5136073;27;20417;-78
2022/11/17 07:50:26;;;;;;;18.23;16.27;;;6.10;99.90;;;;;;5135170;28;20474;-78
2022/11/17 07:52:56;;;;;;;17.90;15.20;;;6.10;99.90;;;;;;5135049;28;21065;-78
2022/11/17 07:55:25;;;;;;;17.77;15.87;;;6.10;99.90;;;;;;5134809;28;20518;-78
2022/11/17 07:57:58;;;;;;;16.47;13.90;;;6.00;99.90;;;;;;5134468;28;20442;-78
2022/11/17 08:00:26;;;;;;;19.90;17.60;;;6.00;99.90;;;;;;5134587;28;20419;-77
2022/11/17 08:02:55;;;;;;;19.03;16.93;;;6.00;99.90;;;;;;5133987;28;20494;-78
2022/11/17 08:05:23;;;;;;;18.63;16.70;;;6.00;99.90;;;;;;5134542;28;20990;-77
2022/11/17 08:07:56;;;;;;;18.10;16.23;;;5.90;99.90;;;;;;5133443;27;21067;-77
2022/11/17 08:10:25;;;;;;;18.20;16.23;;;5.90;99.90;;;;;;5136938;27;20479;-77
2022/11/17 08:12:54;;;;;;;18.33;16.03;;;5.90;99.90;;;;;;5137421;27;20890;-77
2022/11/17 08:15:22;;;;;;;19.03;17.00;;;5.80;99.90;;;;;;5136581;27;20443;-77
2022/11/17 08:17:53;;;;;;;17.70;15.50;;;5.80;99.90;;;;;;5138521;27;20434;-78
2022/11/17 08:20:22;;;;;;;15.37;12.57;;;5.80;99.90;;;;;;5138753;27;20444;-78
2022/11/17 08:22:51;;;;;;;17.13;14.87;;;5.80;99.90;;;;;;5138896;27;20466;-78
2022/11/17 08:25:22;;;;;;;18.63;15.77;;;5.80;99.90;;;;;;5136974;27;20465;-78
2022/11/17 08:27:53;;;;;;;18.17;16.27;;;5.70;99.90;;;;;;5138146;27;20529;-78
2022/11/17 08:30:22;;;;;;;19.23;15.50;;;5.70;99.90;;;;;;5136641;27;20485;-78
2022/11/17 08:32:52;;;;;;;17.47;15.50;;;5.70;99.90;;;;;;5136894;27;20493;-77
2022/11/17 08:35:22;;;;;;;15.60;14.00;;;5.70;99.90;;;;;;5136691;27;20521;-78
2022/11/17 08:37:51;;;;;;;17.37;15.53;;;5.70;99.90;;;;;;5137459;27;20600;-79
2022/11/17 08:40:21;;;;;;;15.73;14.13;;;5.70;99.90;;;;;;5137307;27;20453;-78
2022/11/17 08:42:53;;;;;;;16.67;13.90;;;5.70;99.90;;;;;;5138301;27;20466;-77
2022/11/17 08:45:27;;;;;;;18.37;16.00;;;5.60;99.90;;;;;;5138325;27;20960;-78
2022/11/17 08:47:56;;;;;;;18.10;16.20;;;5.60;99.90;;;;;;5139231;27;20432;-78
2022/11/17 08:50:25;;;;;;;18.27;16.40;;;5.60;99.90;;;;;;5138126;27;20537;-78
2022/11/17 08:52:53;;;;;;;18.30;16.20;;;5.60;99.90;;;;;;5138764;27;20553;-78
2022/11/17 08:55:24;;;;;;;17.10;15.20;;;5.60;99.90;;;;;;5137773;27;20971;-78
2022/11/17 08:57:53;;;;;;;17.23;14.97;;;5.60;99.90;;;;;;5138565;27;20920;-78
2022/11/17 09:00:22;;;;;;;16.73;14.90;;;5.60;99.90;;;;;;5141474;27;20465;-78
2022/11/17 09:02:50;;;;;;;17.60;15.63;;;5.60;99.90;;;;;;5142734;27;20474;-79
2022/11/17 09:05:19;;;;;;;17.73;15.60;;;5.60;99.90;;;;;;5140105;27;20557;-78
2022/11/17 09:07:47;;;;;;;17.10;15.30;;;5.50;99.90;;;;;;5139768;27;20469;-79
2022/11/17 09:10:16;;;;;;;17.60;15.70;;;5.60;99.90;;;;;;5141601;27;20529;-79
2022/11/17 09:12:46;;;;;;;18.17;15.40;;;5.50;99.90;;;;;;5139230;27;20561;-79
2022/11/17 09:15:14;;;;;;;17.90;14.90;;;5.50;99.90;;;;;;5139564;27;20448;-79
2022/11/17 09:17:46;;;;;;;14.57;12.60;;;5.50;99.90;;;;;;5139110;27;20481;-79
2022/11/17 09:20:15;;;;;;;14.70;13.03;;;5.50;99.90;;;;;;5139919;27;20419;-79
2022/11/17 09:22:43;;;;;;;15.80;13.80;;;5.50;99.90;;;;;;5139365;27;20462;-79
2022/11/17 09:25:11;;;;;;;16.33;14.10;;;5.50;99.90;;;;;;5142398;27;20982;-78
2022/11/17 09:27:40;;;;;;;16.17;14.07;;;5.50;99.90;;;;;;5142315;27;20544;-79
2022/11/17 09:30:11;;;;;;;16.17;14.00;;;5.50;99.90;;;;;;5141978;27;20451;-79
2022/11/17 09:32:39;;;;;;;16.17;12.43;;;5.50;99.90;;;;;;5142864;27;20466;-78
2022/11/17 09:35:08;;;;;;;15.00;13.50;;;5.50;99.90;;;;;;5151275;27;20431;-78
2022/11/17 09:37:36;;;;;;;17.13;15.27;;;5.50;99.90;;;;;;5150474;27;20454;-77
2022/11/17 09:40:05;;;;;;;15.50;13.90;;;5.50;99.90;;;;;;5148192;27;20447;-78
2022/11/17 09:42:38;;;;;;;15.73;14.00;;;5.50;99.90;;;;;;5150622;27;20457;-78
2022/11/17 09:45:13;;;;;;;14.87;13.20;;;5.50;99.90;;;;;;5149700;27;20466;-78
2022/11/17 09:47:45;;;;;;;15.57;13.80;;;5.50;99.90;;;;;;5152903;27;20442;-79
2022/11/17 09:50:21;;;;;;;14.67;13.07;;;5.50;99.90;;;;;;5151375;27;20446;-79
2022/11/17 09:52:58;;;;;;;14.10;12.70;;;5.50;99.90;;;;;;5151028;27;20458;-79
2022/11/17 09:55:31;;;;;;;14.40;13.00;;;5.50;99.90;;;;;;5152006;27;20501;-79
2022/11/17 09:58:11;;;;;;;14.00;12.17;;;5.50;99.90;;;;;;5151102;27;20437;-79
2022/11/17 10:00:43;;;;;;;13.00;11.60;;;5.50;99.90;;;;;;5146563;27;20430;-78
2022/11/17 10:03:18;;;;;;;13.67;12.37;;;5.50;99.90;;;;;;5147764;27;20442;-78
2022/11/17 10:05:47;;;;;;;14.40;12.90;;;5.50;99.90;;;;;;5148948;27;20552;-79
2022/11/17 10:08:19;;;;;;;14.07;12.50;;;5.50;99.90;;;;;;5140044;27;20966;-79
2022/11/17 10:10:49;;;;;;;12.50;11.20;;;5.50;99.90;;;;;;5140200;27;20443;-79
2022/11/17 10:13:25;;;;;;;14.80;12.93;;;5.60;99.90;;;;;;5141235;27;20466;-79
2022/11/17 10:15:58;;;;;;;15.13;12.70;;;5.50;99.90;;;;;;5140540;27;20807;-78
2022/11/17 10:18:28;;;;;;;12.53;11.23;;;5.60;99.90;;;;;;5144974;27;20435;-79
2022/11/17 10:21:06;;;;;;;13.40;12.00;;;5.50;99.90;;;;;;5141874;27;20533;-79
2022/11/17 10:23:36;;;;;;;14.00;12.17;;;5.60;99.90;;;;;;5141539;27;20462;-79
2022/11/17 10:26:14;;;;;;;11.33;10.13;;;5.50;99.90;;;;;;5141252;27;20466;-79
2022/11/17 10:28:43;;;;;;;12.50;10.20;;;5.50;99.90;;;;;;5139884;27;20545;-79
2022/11/17 10:31:14;;;;;;;12.80;11.43;;;5.50;99.90;;;;;;5143717;27;20442;-80
2022/11/17 10:33:45;;;;;;;11.90;10.60;;;5.60;99.90;;;;;;5149620;27;20466;-80
2022/11/17 10:36:19;;;;;;;12.30;11.00;;;5.60;99.90;;;;;;5144573;27;20785;-79
2022/11/17 10:38:49;;;;;;;13.40;11.57;;;5.60;99.90;;;;;;5142470;27;20443;-79
2022/11/17 10:41:20;;;;;;;12.20;11.00;;;5.60;99.90;;;;;;5142565;27;20460;-79
2022/11/17 10:43:57;;;;;;;13.90;12.50;;;5.60;99.90;;;;;;5142176;27;20458;-79
2022/11/17 10:46:28;;;;;;;12.80;11.50;;;5.60;99.90;;;;;;5144105;27;20461;-79
2022/11/17 10:49:24;;;;;;;15.37;13.13;;;6.00;99.90;;;;;;5144183;27;20438;-79
2022/11/17 10:52:05;;;;;;;12.50;11.20;;;5.60;99.90;;;;;;5141874;27;20794;-79
2022/11/17 10:54:33;;;;;;;12.70;11.40;;;5.60;99.90;;;;;;5142861;27;20513;-79
2022/11/17 10:57:05;;;;;;;12.33;11.03;;;5.60;99.90;;;;;;5142796;27;20445;-79
2022/11/17 10:59:43;;;;;;;11.90;10.70;;;5.60;99.90;;;;;;5142790;27;20411;-79
2022/11/17 11:02:28;;;;;;;12.50;10.87;;;5.60;99.90;;;;;;5140681;27;20522;-79
2022/11/17 11:05:07;;;;;;;12.13;10.93;;;5.60;99.90;;;;;;5140719;27;20901;-79
2022/11/17 11:07:36;;;;;;;12.43;10.03;;;5.70;99.90;;;;;;5140336;27;20466;-79
2022/11/17 11:10:12;;;;;;;11.83;10.27;;;5.70;99.90;;;;;;5142309;27;20546;-79
2022/11/17 11:12:45;;;;;;;12.00;10.70;;;5.70;99.90;;;;;;5141207;27;20475;-79
2022/11/17 11:15:19;;;;;;;11.13;9.80;;;5.70;99.90;;;;;;5139179;27;20464;-79
2022/11/17 11:17:48;;;;;;;11.70;9.80;;;5.70;99.90;;;;;;5140619;27;20471;-79
2022/11/17 11:20:20;;;;;;;10.80;9.40;;;5.70;99.90;;;;;;5141509;27;20935;-79
2022/11/17 11:22:57;;;;;;;12.00;10.23;;;5.70;99.90;;;;;;5139707;27;20475;-79
2022/11/17 11:25:33;;;;;;;10.90;9.80;;;5.70;99.90;;;;;;5141492;27;20419;-79
2022/11/17 11:28:17;;;;;;;10.60;8.93;;;5.70;99.90;;;;;;5140272;28;20434;-79
2022/11/17 11:30:56;;;;;;;10.90;9.60;;;5.70;99.90;;;;;;5139558;28;20446;-79
2022/11/17 11:33:34;;;;;;;11.03;9.93;;;5.70;99.90;;;;;;5139024;28;20517;-78
2022/11/17 11:36:19;;;;;;;10.50;9.07;;;5.70;99.90;;;;;;5136765;28;20467;-78
2022/11/17 11:38:59;;;;;;;10.63;9.53;;;5.80;99.90;;;;;;5134940;28;20474;-78
2022/11/17 11:41:50;;;;;;;9.77;8.77;;;5.70;99.90;;;;;;5134101;28;20474;-78
2022/11/17 11:44:38;;;;;;;9.53;8.53;;;5.80;99.90;;;;;;5133918;27;20466;-78
2022/11/17 11:47:18;;;;;;;10.53;8.90;;;5.70;99.90;;;;;;5139336;27;20548;-78
2022/11/17 11:49:53;;;;;;;10.00;8.97;;;5.80;99.90;;;;;;5142529;27;20451;-78
2022/11/17 11:52:25;;;;;;;9.53;8.53;;;5.80;99.90;;;;;;5139511;27;20459;-78
2022/11/17 11:54:59;;;;;;;8.43;7.00;;;5.80;99.90;;;;;;5140989;27;20477;-78
2022/11/17 11:57:33;;;;;;;10.67;8.57;;;5.80;99.90;;;;;;5141625;27;20465;-78
2022/11/17 12:00:04;;;;;;;9.93;7.90;;;5.80;99.90;;;;;;5143114;27;20421;-78
2022/11/17 12:02:42;;;;;;;9.13;8.13;;;5.80;99.90;;;;;;5141541;27;20553;-78
2022/11/17 12:05:23;;;;;;;8.57;7.67;;;5.80;99.90;;;;;;5139866;27;20939;-78
2022/11/17 12:07:58;;;;;;;8.90;8.00;;;5.90;99.90;;;;;;5140979;27;20458;-78
2022/11/17 12:10:31;;;;;;;9.60;7.97;;;5.90;99.90;;;;;;5141005;27;20445;-79
2022/11/17 12:13:00;;;;;;;8.30;7.30;;;5.90;99.90;;;;;;5142968;27;21038;-78
2022/11/17 12:15:34;;;;;;;8.20;6.80;;;5.90;99.90;;;;;;5139911;27;20438;-78
2022/11/17 12:18:05;;;;;;;8.50;7.60;;;5.90;99.90;;;;;;5139164;27;20912;-78
2022/11/17 12:20:55;;;;;;;8.33;7.37;;;5.90;99.90;;;;;;5139931;27;20924;-78
2022/11/17 12:23:36;;;;;;;7.60;6.50;;;5.80;99.90;;;;;;5141875;27;20509;-78
2022/11/17 12:26:04;;;;;;;7.77;6.70;;;5.90;99.90;;;;;;5141201;27;20469;-79
2022/11/17 12:28:35;;;;;;;7.90;7.10;;;5.90;99.90;;;;;;5139272;27;20954;-78
2022/11/17 12:31:05;;;;;;;8.07;6.97;;;5.90;99.90;;;;;;5137063;27;20484;-78
2022/11/17 12:34:21;;;;;;;7.57;6.77;;;5.90;99.90;;;;;;5139417;27;20469;-78
2022/11/17 12:37:18;;;;;;;7.97;6.47;;;5.90;99.90;;;;;;5137903;27;20466;-78
2022/11/17 12:39:56;;;;;;;7.23;6.07;;;5.90;99.90;;;;;;5136700;27;20939;-78
2022/11/17 12:42:24;;;;;;;6.80;6.00;;;5.90;99.90;;;;;;5138299;27;20469;-78
2022/11/17 12:44:58;;;;;;;7.10;6.10;;;5.90;99.90;;;;;;5136443;27;20450;-78
2022/11/17 12:47:29;;;;;;;7.43;6.07;;;5.90;99.90;;;;;;5136616;27;20450;-78
2022/11/17 12:50:22;;;;;;;9.27;8.37;;;5.90;99.90;;;;;;5136268;27;20450;-77
2022/11/17 12:53:24;;;;;;;7.43;5.87;;;5.90;99.90;;;;;;5135950;27;20463;-78
2022/11/17 12:56:31;;;;;;;7.50;6.70;;;5.90;99.90;;;;;;5137027;27;21009;-78
2022/11/17 12:59:18;;;;;;;7.77;6.53;;;5.90;99.90;;;;;;5135888;27;20541;-77
2022/11/17 13:01:53;;;;;;;6.23;5.57;;;5.90;99.90;;;;;;5137284;27;20479;-78
2022/11/17 13:04:30;;;;;;;9.07;6.90;;;5.90;99.90;;;;;;5137249;27;20423;-78
2022/11/17 13:07:00;;;;;;;7.13;5.87;;;5.90;99.90;;;;;;5135637;27;20991;-78
2022/11/17 13:09:32;;;;;;;6.57;5.57;;;5.90;99.90;;;;;;5136828;27;20424;-78
2022/11/17 13:12:02;;;;;;;6.60;5.90;;;5.90;99.90;;;;;;5135948;27;20907;-78
2022/11/17 13:14:31;;;;;;;6.80;5.60;;;6.00;99.90;;;;;;5136243;27;20503;-78
2022/11/17 13:17:00;;;;;;;6.07;5.47;;;6.00;99.90;;;;;;5139275;27;20444;-78
2022/11/17 13:19:35;;;;;;;6.60;5.70;;;6.00;99.90;;;;;;5137026;27;20518;-78
2022/11/17 13:22:05;;;;;;;5.67;5.07;;;6.00;99.90;;;;;;5135932;27;20458;-78
2022/11/17 13:24:37;;;;;;;11.03;8.93;;;6.00;99.90;;;;;;5137554;27;20519;-78
2022/11/17 13:27:07;;;;;;;7.47;6.70;;;6.00;99.90;;;;;;5139450;27;20455;-78
2022/11/17 13:29:35;;;;;;;7.00;6.30;;;6.00;99.90;;;;;;5139377;27;20444;-78
2022/11/17 13:32:15;;;;;;;7.53;5.83;;;6.00;99.90;;;;;;5141404;27;20537;-78
2022/11/17 13:34:52;;;;;;;6.73;6.03;;;6.00;99.90;;;;;;5138466;27;20818;-78
2022/11/17 13:37:23;;;;;;;6.20;5.50;;;6.00;99.90;;;;;;5138667;27;20450;-79
2022/11/17 13:39:58;;;;;;;7.20;5.70;;;6.00;99.90;;;;;;5138874;27;20443;-78
2022/11/17 13:42:29;;;;;;;8.20;6.70;;;6.10;99.90;;;;;;5138460;27;20470;-78